INFORMAÇÕES DO AERODROMO
Icao Aerodromo GCTS Nome do Aerodromo Tenerife South Airport Cidade Tenerife Island
Código GPS GCTS Elevação Média 209 ft Tipo de Aerodromo Aeroporto Grande Porte

INFORMAÇÃO DE PISTA
Pista 08 Comprimento da Pista 10499 ft Largura da Pista 148 ft
Elevação da Pista 187 ft Distância de Area de Escape da Pista 0 ft Orientação da Pista 69
Pista 26 Comprimento da Pista 10499 ft Largura da Pista 148 ft
Elevação da Pista 209 ft Distância de Area de Escape da Pista 0 ft Orientação da Pista 249

FREQUÊNCIAS DO AERODROMO
Tipo APP Nome APP Frequência 120.3 MHZ
Tipo ATIS Nome ATIS Frequência 118.675 MHZ
Tipo GND Nome GND Frequência 121.9 MHZ
Tipo TWR Nome TWR Frequência 119 MHZ

INFORMAÇÕES DE NAVEGAÇÃO PRÓXIMO AO AERODROMO
Tipo NDB Nome Tenerife Sur Frequência 317 KHZ
Tipo VOR-DME Nome Tenerife Sur Frequência 116400 KHZ

Informações de Meteorologia(METAR atual)
METAR DE GCTS
ADDS - METARS form results

(0338 UTC 09 May 2021)
Data provider http://aviationweather.gov/metar/data/
 
METAR text: GCTS 090330Z 34007KT 9999 FEW035 17/12 Q1017 NOSIG
Conditions at: GCTS (TENERIFE SUR/REI, ES) observed 0330 UTC 09 May 2021
Temperature: 17.0°C (63°F)
Dewpoint: 12.0°C (54°F) [RH = 72%]
Pressure (altimeter): 30.03 inches Hg (1017.0 mb)
Winds: from the NNW (340 degrees) at 8 MPH (7 knots; 3.6 m/s)
Visibility: 6 or more miles (10+ km)
Ceiling: at least 12,000 feet AGL
Clouds: few clouds at 3500 feet AGL
Weather: no significant weather observed at this time

METAR text: GCTS 090300Z 34007KT 9999 FEW035 18/12 Q1017 NOSIG
Conditions at: GCTS (TENERIFE SUR/REI, ES) observed 0300 UTC 09 May 2021
Temperature: 18.0°C (64°F)
Dewpoint: 12.0°C (54°F) [RH = 68%]
Pressure (altimeter): 30.03 inches Hg (1017.0 mb)
Winds: from the NNW (340 degrees) at 8 MPH (7 knots; 3.6 m/s)
Visibility: 6 or more miles (10+ km)
Ceiling: at least 12,000 feet AGL
Clouds: few clouds at 3500 feet AGL
Weather: no significant weather observed at this time

Forecast for: GCTS (TENERIFE SUR/REI, ES)
Text: TAF GCTS 090200Z 0903/1003 29007KT 9999 FEW035 TX25/0914Z TN17/0906Z
Forecast period: 0300 to 1100 UTC 09 May 2021
Forecast type: FROM: standard forecast or significant change
Winds: from the WNW (290 degrees) at 8 MPH (7 knots; 3.6 m/s)
Visibility: 6 or more miles (10+ km)
Ceiling: at least 12,000 feet AGL
Clouds: few clouds at 3500 feet AGL
Weather: no significant weather forecast for this period
Text: BECMG 0911/0914 23011KT
Forecast period: 1100 UTC 09 May 2021 to 0300 UTC 10 May 2021
Forecast type: BECOMING: Conditions expected to become as follows by 1400 UTC 09 May 2021
Winds: from the SW (230 degrees) at 13 MPH (11 knots; 5.7 m/s)
Visibility: 6 or more miles (10+ km)
Ceiling: at least 12,000 feet AGL
Clouds: few clouds at 3500 feet AGL
Weather: no significant weather forecast for this period

MAPA DO AERODROMO


Desenvolvido por Virtual Airlines Manager




Modificado por Grupo Brasil Amigos